sensor_id;sensor_type;location;lat;lon;timestamp;P1;durP1;ratioP1;P2;durP2;ratioP2
10031;SDS011;5056;44.272;19.892;2023-07-16T00:00:39;14.45;;;13.35;;
10031;SDS011;5056;44.272;19.892;2023-07-16T00:03:06;14.30;;;13.30;;
10031;SDS011;5056;44.272;19.892;2023-07-16T00:05:34;14.25;;;13.25;;
10031;SDS011;5056;44.272;19.892;2023-07-16T00:08:02;16.20;;;14.90;;
10031;SDS011;5056;44.272;19.892;2023-07-16T00:10:30;16.73;;;15.18;;
10031;SDS011;5056;44.272;19.892;2023-07-16T00:12:59;14.43;;;13.30;;
10031;SDS011;5056;44.272;19.892;2023-07-16T00:15:28;15.65;;;14.45;;
10031;SDS011;5056;44.272;19.892;2023-07-16T00:17:55;14.73;;;13.63;;
10031;SDS011;5056;44.272;19.892;2023-07-16T00:20:22;14.93;;;13.82;;
10031;SDS011;5056;44.272;19.892;2023-07-16T00:22:54;15.63;;;14.23;;
10031;SDS011;5056;44.272;19.892;2023-07-16T00:25:22;15.35;;;14.00;;
10031;SDS011;5056;44.272;19.892;2023-07-16T00:27:49;15.60;;;14.23;;
10031;SDS011;5056;44.272;19.892;2023-07-16T00:30:24;15.05;;;13.85;;
10031;SDS011;5056;44.272;19.892;2023-07-16T00:32:50;15.02;;;13.93;;
10031;SDS011;5056;44.272;19.892;2023-07-16T00:35:17;14.20;;;13.10;;
10031;SDS011;5056;44.272;19.892;2023-07-16T00:37:45;15.70;;;14.50;;
10031;SDS011;5056;44.272;19.892;2023-07-16T00:40:13;14.50;;;13.50;;
10031;SDS011;5056;44.272;19.892;2023-07-16T00:42:40;15.38;;;14.13;;
10031;SDS011;5056;44.272;19.892;2023-07-16T00:45:09;14.77;;;13.57;;
10031;SDS011;5056;44.272;19.892;2023-07-16T00:47:39;15.45;;;14.20;;
10031;SDS011;5056;44.272;19.892;2023-07-16T00:50:06;14.73;;;13.50;;
10031;SDS011;5056;44.272;19.892;2023-07-16T00:52:36;14.88;;;13.77;;
10031;SDS011;5056;44.272;19.892;2023-07-16T00:55:03;15.25;;;13.95;;
10031;SDS011;5056;44.272;19.892;2023-07-16T00:57:32;14.43;;;13.05;;
10031;SDS011;5056;44.272;19.892;2023-07-16T00:59:59;14.90;;;13.55;;
10031;SDS011;5056;44.272;19.892;2023-07-16T01:02:26;14.80;;;13.52;;
10031;SDS011;5056;44.272;19.892;2023-07-16T01:04:53;14.55;;;13.45;;
10031;SDS011;5056;44.272;19.892;2023-07-16T01:07:20;14.55;;;13.55;;
10031;SDS011;5056;44.272;19.892;2023-07-16T01:09:50;14.70;;;13.50;;
10031;SDS011;5056;44.272;19.892;2023-07-16T01:12:18;14.15;;;13.05;;
10031;SDS011;5056;44.272;19.892;2023-07-16T01:14:47;15.80;;;14.50;;
10031;SDS011;5056;44.272;19.892;2023-07-16T01:17:23;14.32;;;13.32;;
10031;SDS011;5056;44.272;19.892;2023-07-16T01:19:50;14.65;;;13.35;;
10031;SDS011;5056;44.272;19.892;2023-07-16T01:22:24;14.57;;;13.18;;
10031;SDS011;5056;44.272;19.892;2023-07-16T01:25:05;15.07;;;13.88;;
10031;SDS011;5056;44.272;19.892;2023-07-16T01:27:47;14.75;;;13.52;;
10031;SDS011;5056;44.272;19.892;2023-07-16T01:30:34;13.45;;;12.45;;
10031;SDS011;5056;44.272;19.892;2023-07-16T01:33:04;14.77;;;13.57;;
10031;SDS011;5056;44.272;19.892;2023-07-16T01:35:31;14.85;;;13.75;;
10031;SDS011;5056;44.272;19.892;2023-07-16T01:37:59;14.68;;;13.18;;
10031;SDS011;5056;44.272;19.892;2023-07-16T01:40:26;14.00;;;13.00;;
10031;SDS011;5056;44.272;19.892;2023-07-16T01:42:53;14.57;;;13.38;;
10031;SDS011;5056;44.272;19.892;2023-07-16T01:45:21;14.27;;;13.18;;
10031;SDS011;5056;44.272;19.892;2023-07-16T01:47:54;13.73;;;12.65;;
10031;SDS011;5056;44.272;19.892;2023-07-16T01:50:26;13.98;;;12.88;;
10031;SDS011;5056;44.272;19.892;2023-07-16T01:52:53;13.05;;;12.05;;
10031;SDS011;5056;44.272;19.892;2023-07-16T01:55:21;12.85;;;11.95;;
10031;SDS011;5056;44.272;19.892;2023-07-16T01:57:48;14.00;;;12.80;;
10031;SDS011;5056;44.272;19.892;2023-07-16T02:00:16;13.57;;;12.38;;
10031;SDS011;5056;44.272;19.892;2023-07-16T02:02:43;13.20;;;12.10;;
10031;SDS011;5056;44.272;19.892;2023-07-16T02:05:17;13.25;;;12.32;;
10031;SDS011;5056;44.272;19.892;2023-07-16T02:07:44;12.88;;;11.98;;
10031;SDS011;5056;44.272;19.892;2023-07-16T02:10:11;13.18;;;11.98;;
10031;SDS011;5056;44.272;19.892;2023-07-16T02:12:39;13.68;;;12.65;;
10031;SDS011;5056;44.272;19.892;2023-07-16T02:15:06;12.88;;;11.88;;
10031;SDS011;5056;44.272;19.892;2023-07-16T02:17:33;13.15;;;12.25;;
10031;SDS011;5056;44.272;19.892;2023-07-16T02:20:01;13.57;;;12.57;;
10031;SDS011;5056;44.272;19.892;2023-07-16T02:22:31;13.80;;;12.80;;
10031;SDS011;5056;44.272;19.892;2023-07-16T02:24:59;14.15;;;13.05;;
10031;SDS011;5056;44.272;19.892;2023-07-16T02:27:27;13.93;;;12.88;;
10031;SDS011;5056;44.272;19.892;2023-07-16T02:29:56;13.40;;;12.30;;
10031;SDS011;5056;44.272;19.892;2023-07-16T02:32:23;13.43;;;12.20;;
10031;SDS011;5056;44.272;19.892;2023-07-16T02:34:50;14.45;;;13.25;;
10031;SDS011;5056;44.272;19.892;2023-07-16T02:37:17;14.15;;;12.88;;
10031;SDS011;5056;44.272;19.892;2023-07-16T02:39:45;13.23;;;12.13;;
10031;SDS011;5056;44.272;19.892;2023-07-16T02:42:13;13.45;;;12.40;;
10031;SDS011;5056;44.272;19.892;2023-07-16T02:44:39;13.65;;;12.45;;
10031;SDS011;5056;44.272;19.892;2023-07-16T02:47:09;17.38;;;12.70;;
10031;SDS011;5056;44.272;19.892;2023-07-16T02:49:36;13.90;;;12.90;;
10031;SDS011;5056;44.272;19.892;2023-07-16T02:52:03;12.93;;;11.93;;
10031;SDS011;5056;44.272;19.892;2023-07-16T02:54:38;14.20;;;13.13;;
10031;SDS011;5056;44.272;19.892;2023-07-16T02:57:06;13.75;;;12.77;;
10031;SDS011;5056;44.272;19.892;2023-07-16T02:59:33;14.23;;;13.00;;
10031;SDS011;5056;44.272;19.892;2023-07-16T03:02:01;14.50;;;13.10;;
10031;SDS011;5056;44.272;19.892;2023-07-16T03:04:28;13.80;;;12.80;;
10031;SDS011;5056;44.272;19.892;2023-07-16T03:06:55;14.30;;;13.20;;
10031;SDS011;5056;44.272;19.892;2023-07-16T03:09:22;15.15;;;13.88;;
10031;SDS011;5056;44.272;19.892;2023-07-16T03:11:49;14.43;;;13.30;;
10031;SDS011;5056;44.272;19.892;2023-07-16T03:14:18;14.70;;;13.38;;
10031;SDS011;5056;44.272;19.892;2023-07-16T03:16:45;14.00;;;12.90;;
10031;SDS011;5056;44.272;19.892;2023-07-16T03:19:12;12.88;;;11.93;;
10031;SDS011;5056;44.272;19.892;2023-07-16T03:21:41;14.15;;;13.10;;
10031;SDS011;5056;44.272;19.892;2023-07-16T03:24:07;13.75;;;12.65;;
10031;SDS011;5056;44.272;19.892;2023-07-16T03:26:36;13.63;;;12.63;;
10031;SDS011;5056;44.272;19.892;2023-07-16T03:29:03;14.70;;;13.60;;
10031;SDS011;5056;44.272;19.892;2023-07-16T03:31:31;14.82;;;13.63;;
10031;SDS011;5056;44.272;19.892;2023-07-16T03:33:58;14.40;;;13.15;;
10031;SDS011;5056;44.272;19.892;2023-07-16T03:36:25;15.60;;;14.13;;
10031;SDS011;5056;44.272;19.892;2023-07-16T03:38:52;14.05;;;12.75;;
10031;SDS011;5056;44.272;19.892;2023-07-16T03:41:19;14.15;;;13.05;;
10031;SDS011;5056;44.272;19.892;2023-07-16T03:43:45;14.57;;;13.38;;
10031;SDS011;5056;44.272;19.892;2023-07-16T03:46:12;13.88;;;12.77;;
10031;SDS011;5056;44.272;19.892;2023-07-16T03:48:41;13.77;;;12.70;;
10031;SDS011;5056;44.272;19.892;2023-07-16T03:51:08;13.80;;;12.60;;
10031;SDS011;5056;44.272;19.892;2023-07-16T03:53:34;13.60;;;12.38;;
10031;SDS011;5056;44.272;19.892;2023-07-16T03:56:01;14.52;;;13.52;;
10031;SDS011;5056;44.272;19.892;2023-07-16T04:01:41;15.27;;;13.35;;
10031;SDS011;5056;44.272;19.892;2023-07-16T04:04:09;13.30;;;12.10;;
10031;SDS011;5056;44.272;19.892;2023-07-16T04:06:36;13.30;;;12.10;;
10031;SDS011;5056;44.272;19.892;2023-07-16T04:09:03;13.63;;;12.40;;
10031;SDS011;5056;44.272;19.892;2023-07-16T04:11:40;14.27;;;13.07;;
10031;SDS011;5056;44.272;19.892;2023-07-16T04:14:07;13.70;;;12.52;;
10031;SDS011;5056;44.272;19.892;2023-07-16T04:16:34;14.52;;;13.02;;
10031;SDS011;5056;44.272;19.892;2023-07-16T04:22:00;14.43;;;13.23;;
10031;SDS011;5056;44.272;19.892;2023-07-16T04:24:26;16.38;;;14.98;;
10031;SDS011;5056;44.272;19.892;2023-07-16T04:26:54;18.25;;;16.40;;
10031;SDS011;5056;44.272;19.892;2023-07-16T04:29:21;18.17;;;16.38;;
10031;SDS011;5056;44.272;19.892;2023-07-16T04:31:48;18.55;;;16.75;;
10031;SDS011;5056;44.272;19.892;2023-07-16T04:34:15;17.63;;;16.13;;
10031;SDS011;5056;44.272;19.892;2023-07-16T04:36:44;16.45;;;14.98;;
10031;SDS011;5056;44.272;19.892;2023-07-16T04:39:10;17.63;;;15.95;;
10031;SDS011;5056;44.272;19.892;2023-07-16T04:41:37;17.85;;;16.35;;
10031;SDS011;5056;44.272;19.892;2023-07-16T04:44:05;17.85;;;16.23;;
10031;SDS011;5056;44.272;19.892;2023-07-16T04:46:33;17.30;;;15.80;;
10031;SDS011;5056;44.272;19.892;2023-07-16T04:49:00;17.05;;;15.57;;
10031;SDS011;5056;44.272;19.892;2023-07-16T04:51:27;15.85;;;14.55;;
10031;SDS011;5056;44.272;19.892;2023-07-16T04:53:56;16.30;;;14.90;;
10031;SDS011;5056;44.272;19.892;2023-07-16T04:56:22;16.05;;;14.85;;
10031;SDS011;5056;44.272;19.892;2023-07-16T04:58:49;16.63;;;15.15;;
10031;SDS011;5056;44.272;19.892;2023-07-16T05:01:16;14.95;;;13.68;;
10031;SDS011;5056;44.272;19.892;2023-07-16T05:03:49;15.15;;;13.95;;
10031;SDS011;5056;44.272;19.892;2023-07-16T05:06:16;14.52;;;13.43;;
10031;SDS011;5056;44.272;19.892;2023-07-16T05:08:43;14.20;;;13.05;;
10031;SDS011;5056;44.272;19.892;2023-07-16T05:11:11;14.23;;;13.20;;
10031;SDS011;5056;44.272;19.892;2023-07-16T05:13:38;16.05;;;14.70;;
10031;SDS011;5056;44.272;19.892;2023-07-16T05:16:05;15.68;;;14.25;;
10031;SDS011;5056;44.272;19.892;2023-07-16T05:18:32;15.38;;;14.07;;
10031;SDS011;5056;44.272;19.892;2023-07-16T05:21:00;14.73;;;13.45;;
10031;SDS011;5056;44.272;19.892;2023-07-16T05:23:27;16.48;;;15.07;;
10031;SDS011;5056;44.272;19.892;2023-07-16T05:25:54;16.25;;;14.77;;
10031;SDS011;5056;44.272;19.892;2023-07-16T05:31:01;17.55;;;16.13;;
10031;SDS011;5056;44.272;19.892;2023-07-16T05:33:29;17.58;;;15.98;;
10031;SDS011;5056;44.272;19.892;2023-07-16T05:35:56;17.95;;;16.25;;
10031;SDS011;5056;44.272;19.892;2023-07-16T05:38:23;18.30;;;16.67;;
10031;SDS011;5056;44.272;19.892;2023-07-16T05:40:50;18.52;;;16.75;;
10031;SDS011;5056;44.272;19.892;2023-07-16T05:43:17;19.15;;;17.38;;
10031;SDS011;5056;44.272;19.892;2023-07-16T05:45:45;17.90;;;16.10;;
10031;SDS011;5056;44.272;19.892;2023-07-16T05:48:12;15.85;;;14.63;;
10031;SDS011;5056;44.272;19.892;2023-07-16T05:50:39;15.88;;;14.60;;
10031;SDS011;5056;44.272;19.892;2023-07-16T05:53:06;15.02;;;13.82;;
10031;SDS011;5056;44.272;19.892;2023-07-16T05:55:33;14.93;;;13.65;;
10031;SDS011;5056;44.272;19.892;2023-07-16T05:58:14;16.27;;;14.82;;
10031;SDS011;5056;44.272;19.892;2023-07-16T06:00:41;15.10;;;13.82;;
10031;SDS011;5056;44.272;19.892;2023-07-16T06:03:11;14.82;;;13.63;;
10031;SDS011;5056;44.272;19.892;2023-07-16T06:05:37;14.50;;;13.23;;
10031;SDS011;5056;44.272;19.892;2023-07-16T06:08:05;14.15;;;13.05;;
10031;SDS011;5056;44.272;19.892;2023-07-16T06:10:33;12.93;;;11.93;;
10031;SDS011;5056;44.272;19.892;2023-07-16T06:13:00;13.85;;;12.50;;
10031;SDS011;5056;44.272;19.892;2023-07-16T06:15:32;14.57;;;13.23;;
10031;SDS011;5056;44.272;19.892;2023-07-16T06:17:59;13.32;;;12.23;;
10031;SDS011;5056;44.272;19.892;2023-07-16T06:20:28;11.70;;;10.90;;
10031;SDS011;5056;44.272;19.892;2023-07-16T06:22:59;12.98;;;12.07;;
10031;SDS011;5056;44.272;19.892;2023-07-16T06:25:26;12.15;;;11.25;;
10031;SDS011;5056;44.272;19.892;2023-07-16T06:27:54;14.05;;;12.73;;
10031;SDS011;5056;44.272;19.892;2023-07-16T06:30:20;13.40;;;12.18;;
10031;SDS011;5056;44.272;19.892;2023-07-16T06:32:49;15.43;;;12.35;;
10031;SDS011;5056;44.272;19.892;2023-07-16T06:35:39;13.30;;;12.27;;
10031;SDS011;5056;44.272;19.892;2023-07-16T06:38:06;13.57;;;12.45;;
10031;SDS011;5056;44.272;19.892;2023-07-16T06:40:35;12.15;;;11.25;;
10031;SDS011;5056;44.272;19.892;2023-07-16T06:43:02;11.43;;;10.63;;
10031;SDS011;5056;44.272;19.892;2023-07-16T06:45:30;11.65;;;10.75;;
10031;SDS011;5056;44.272;19.892;2023-07-16T06:47:58;11.50;;;10.65;;
10031;SDS011;5056;44.272;19.892;2023-07-16T06:50:25;11.95;;;10.98;;
10031;SDS011;5056;44.272;19.892;2023-07-16T06:52:54;12.48;;;11.57;;
10031;SDS011;5056;44.272;19.892;2023-07-16T06:55:26;14.35;;;13.15;;
10031;SDS011;5056;44.272;19.892;2023-07-16T06:57:53;13.77;;;12.68;;
10031;SDS011;5056;44.272;19.892;2023-07-16T07:00:20;13.77;;;12.45;;
10031;SDS011;5056;44.272;19.892;2023-07-16T07:02:47;12.93;;;11.93;;
10031;SDS011;5056;44.272;19.892;2023-07-16T07:05:14;12.70;;;11.77;;
10031;SDS011;5056;44.272;19.892;2023-07-16T07:07:42;12.52;;;11.63;;
10031;SDS011;5056;44.272;19.892;2023-07-16T07:10:13;13.00;;;12.00;;
10031;SDS011;5056;44.272;19.892;2023-07-16T07:12:40;11.93;;;11.02;;
10031;SDS011;5056;44.272;19.892;2023-07-16T07:15:10;12.07;;;11.27;;
10031;SDS011;5056;44.272;19.892;2023-07-16T07:17:38;10.70;;;10.00;;
10031;SDS011;5056;44.272;19.892;2023-07-16T07:20:08;11.18;;;10.43;;
10031;SDS011;5056;44.272;19.892;2023-07-16T07:22:36;11.13;;;10.32;;
10031;SDS011;5056;44.272;19.892;2023-07-16T07:25:03;10.80;;;10.10;;
10031;SDS011;5056;44.272;19.892;2023-07-16T07:27:32;11.85;;;10.90;;
10031;SDS011;5056;44.272;19.892;2023-07-16T07:29:59;12.82;;;11.05;;
10031;SDS011;5056;44.272;19.892;2023-07-16T07:32:28;11.75;;;10.85;;
10031;SDS011;5056;44.272;19.892;2023-07-16T07:34:56;12.93;;;11.82;;
10031;SDS011;5056;44.272;19.892;2023-07-16T07:37:23;12.68;;;11.65;;
10031;SDS011;5056;44.272;19.892;2023-07-16T07:39:51;11.35;;;10.52;;
10031;SDS011;5056;44.272;19.892;2023-07-16T07:42:18;11.65;;;10.65;;
10031;SDS011;5056;44.272;19.892;2023-07-16T07:44:47;11.63;;;10.73;;
10031;SDS011;5056;44.272;19.892;2023-07-16T07:47:14;12.68;;;11.65;;
10031;SDS011;5056;44.272;19.892;2023-07-16T07:49:41;12.48;;;11.48;;
10031;SDS011;5056;44.272;19.892;2023-07-16T07:52:08;12.65;;;11.57;;
10031;SDS011;5056;44.272;19.892;2023-07-16T07:54:35;13.57;;;11.98;;
10031;SDS011;5056;44.272;19.892;2023-07-16T07:57:03;12.60;;;11.60;;
10031;SDS011;5056;44.272;19.892;2023-07-16T07:59:30;14.20;;;11.20;;
10031;SDS011;5056;44.272;19.892;2023-07-16T08:04:41;11.65;;;10.27;;
10031;SDS011;5056;44.272;19.892;2023-07-16T08:07:08;11.55;;;10.55;;
10031;SDS011;5056;44.272;19.892;2023-07-16T08:09:37;11.95;;;10.95;;
10031;SDS011;5056;44.272;19.892;2023-07-16T08:12:05;11.57;;;10.57;;
10031;SDS011;5056;44.272;19.892;2023-07-16T08:14:33;11.07;;;9.88;;
10031;SDS011;5056;44.272;19.892;2023-07-16T08:17:01;10.00;;;9.00;;
10031;SDS011;5056;44.272;19.892;2023-07-16T08:19:29;9.00;;;8.27;;
10031;SDS011;5056;44.272;19.892;2023-07-16T08:21:57;9.23;;;8.57;;
10031;SDS011;5056;44.272;19.892;2023-07-16T08:24:24;8.60;;;8.00;;
10031;SDS011;5056;44.272;19.892;2023-07-16T08:26:51;10.77;;;9.77;;
10031;SDS011;5056;44.272;19.892;2023-07-16T08:29:20;9.75;;;8.80;;
10031;SDS011;5056;44.272;19.892;2023-07-16T08:31:46;10.02;;;9.05;;
10031;SDS011;5056;44.272;19.892;2023-07-16T08:34:14;8.65;;;8.05;;
10031;SDS011;5056;44.272;19.892;2023-07-16T08:36:43;9.00;;;8.30;;
10031;SDS011;5056;44.272;19.892;2023-07-16T08:39:11;9.45;;;8.65;;
10031;SDS011;5056;44.272;19.892;2023-07-16T08:41:39;9.48;;;8.75;;
10031;SDS011;5056;44.272;19.892;2023-07-16T08:44:06;10.50;;;9.57;;
10031;SDS011;5056;44.272;19.892;2023-07-16T08:46:33;10.35;;;9.63;;
10031;SDS011;5056;44.272;19.892;2023-07-16T08:49:00;10.70;;;9.80;;
10031;SDS011;5056;44.272;19.892;2023-07-16T08:51:27;11.93;;;11.00;;
10031;SDS011;5056;44.272;19.892;2023-07-16T08:53:56;12.93;;;11.73;;
10031;SDS011;5056;44.272;19.892;2023-07-16T08:56:23;12.80;;;11.70;;
10031;SDS011;5056;44.272;19.892;2023-07-16T08:58:51;10.80;;;9.68;;
10031;SDS011;5056;44.272;19.892;2023-07-16T09:01:25;10.63;;;9.73;;
10031;SDS011;5056;44.272;19.892;2023-07-16T09:03:53;11.48;;;10.20;;
10031;SDS011;5056;44.272;19.892;2023-07-16T09:06:20;10.68;;;9.77;;
10031;SDS011;5056;44.272;19.892;2023-07-16T09:08:47;11.63;;;10.70;;
10031;SDS011;5056;44.272;19.892;2023-07-16T09:11:17;10.77;;;9.88;;
10031;SDS011;5056;44.272;19.892;2023-07-16T09:13:46;10.18;;;9.38;;
10031;SDS011;5056;44.272;19.892;2023-07-16T09:16:14;10.93;;;10.02;;
10031;SDS011;5056;44.272;19.892;2023-07-16T09:18:44;10.02;;;9.32;;
10031;SDS011;5056;44.272;19.892;2023-07-16T09:21:11;10.77;;;9.90;;
10031;SDS011;5056;44.272;19.892;2023-07-16T09:23:39;10.30;;;9.57;;
10031;SDS011;5056;44.272;19.892;2023-07-16T09:26:07;10.70;;;9.70;;
10031;SDS011;5056;44.272;19.892;2023-07-16T09:28:36;11.32;;;10.38;;
10031;SDS011;5056;44.272;19.892;2023-07-16T09:31:04;11.30;;;10.18;;
10031;SDS011;5056;44.272;19.892;2023-07-16T09:33:32;12.48;;;10.45;;
10031;SDS011;5056;44.272;19.892;2023-07-16T09:35:59;12.85;;;10.18;;
10031;SDS011;5056;44.272;19.892;2023-07-16T09:38:28;11.63;;;10.55;;
10031;SDS011;5056;44.272;19.892;2023-07-16T09:40:56;11.65;;;10.05;;
10031;SDS011;5056;44.272;19.892;2023-07-16T09:43:23;10.13;;;9.32;;
10031;SDS011;5056;44.272;19.892;2023-07-16T09:45:52;11.13;;;10.05;;
10031;SDS011;5056;44.272;19.892;2023-07-16T09:48:21;10.35;;;9.50;;
10031;SDS011;5056;44.272;19.892;2023-07-16T09:50:50;11.88;;;10.70;;
10031;SDS011;5056;44.272;19.892;2023-07-16T09:53:19;12.88;;;10.82;;
10031;SDS011;5056;44.272;19.892;2023-07-16T09:55:46;9.57;;;8.90;;
10031;SDS011;5056;44.272;19.892;2023-07-16T09:58:15;10.90;;;10.00;;
10031;SDS011;5056;44.272;19.892;2023-07-16T10:00:47;11.02;;;10.20;;
10031;SDS011;5056;44.272;19.892;2023-07-16T10:03:17;11.50;;;10.60;;
10031;SDS011;5056;44.272;19.892;2023-07-16T10:05:44;11.85;;;10.70;;
10031;SDS011;5056;44.272;19.892;2023-07-16T10:08:17;11.00;;;10.23;;
10031;SDS011;5056;44.272;19.892;2023-07-16T10:10:46;10.93;;;9.90;;
10031;SDS011;5056;44.272;19.892;2023-07-16T10:13:15;10.45;;;9.80;;
10031;SDS011;5056;44.272;19.892;2023-07-16T10:15:51;10.57;;;9.77;;
10031;SDS011;5056;44.272;19.892;2023-07-16T10:18:30;11.20;;;10.13;;
10031;SDS011;5056;44.272;19.892;2023-07-16T10:21:02;11.75;;;10.88;;
10031;SDS011;5056;44.272;19.892;2023-07-16T10:23:38;12.20;;;11.18;;
10031;SDS011;5056;44.272;19.892;2023-07-16T10:26:08;12.60;;;11.70;;
10031;SDS011;5056;44.272;19.892;2023-07-16T10:28:41;12.10;;;11.10;;
10031;SDS011;5056;44.272;19.892;2023-07-16T10:31:17;11.38;;;10.48;;
10031;SDS011;5056;44.272;19.892;2023-07-16T10:33:57;12.63;;;11.32;;
10031;SDS011;5056;44.272;19.892;2023-07-16T10:36:25;10.80;;;10.00;;
10031;SDS011;5056;44.272;19.892;2023-07-16T10:38:52;11.32;;;10.55;;
10031;SDS011;5056;44.272;19.892;2023-07-16T10:41:20;11.13;;;10.23;;
10031;SDS011;5056;44.272;19.892;2023-07-16T10:43:47;11.20;;;10.30;;
10031;SDS011;5056;44.272;19.892;2023-07-16T10:46:16;11.15;;;10.02;;
10031;SDS011;5056;44.272;19.892;2023-07-16T10:48:46;11.98;;;10.93;;
10031;SDS011;5056;44.272;19.892;2023-07-16T10:51:15;10.68;;;9.98;;
10031;SDS011;5056;44.272;19.892;2023-07-16T10:53:42;10.77;;;9.98;;
10031;SDS011;5056;44.272;19.892;2023-07-16T10:56:09;10.98;;;10.15;;
10031;SDS011;5056;44.272;19.892;2023-07-16T10:58:38;11.20;;;10.40;;
10031;SDS011;5056;44.272;19.892;2023-07-16T11:01:08;11.55;;;10.55;;
10031;SDS011;5056;44.272;19.892;2023-07-16T11:03:35;11.60;;;10.50;;
10031;SDS011;5056;44.272;19.892;2023-07-16T11:06:05;11.10;;;10.20;;
10031;SDS011;5056;44.272;19.892;2023-07-16T11:08:34;11.88;;;10.90;;
10031;SDS011;5056;44.272;19.892;2023-07-16T11:11:01;10.77;;;9.93;;
10031;SDS011;5056;44.272;19.892;2023-07-16T11:13:28;11.25;;;10.23;;
10031;SDS011;5056;44.272;19.892;2023-07-16T11:16:02;11.32;;;10.43;;
10031;SDS011;5056;44.272;19.892;2023-07-16T11:18:33;12.00;;;10.98;;
10031;SDS011;5056;44.272;19.892;2023-07-16T11:21:00;10.98;;;10.00;;
10031;SDS011;5056;44.272;19.892;2023-07-16T11:23:27;11.95;;;11.07;;
10031;SDS011;5056;44.272;19.892;2023-07-16T11:25:55;14.25;;;11.85;;
10031;SDS011;5056;44.272;19.892;2023-07-16T11:31:09;11.95;;;10.95;;
10031;SDS011;5056;44.272;19.892;2023-07-16T11:33:37;11.68;;;10.75;;
10031;SDS011;5056;44.272;19.892;2023-07-16T11:36:04;12.90;;;11.85;;
10031;SDS011;5056;44.272;19.892;2023-07-16T11:38:35;12.43;;;11.52;;
10031;SDS011;5056;44.272;19.892;2023-07-16T11:41:04;11.90;;;10.90;;
10031;SDS011;5056;44.272;19.892;2023-07-16T11:46:17;11.57;;;10.63;;
10031;SDS011;5056;44.272;19.892;2023-07-16T11:48:44;11.63;;;10.50;;
10031;SDS011;5056;44.272;19.892;2023-07-16T11:51:11;14.88;;;13.50;;
10031;SDS011;5056;44.272;19.892;2023-07-16T11:53:38;13.13;;;12.13;;
10031;SDS011;5056;44.272;19.892;2023-07-16T11:56:06;11.85;;;10.95;;
10031;SDS011;5056;44.272;19.892;2023-07-16T11:58:34;12.05;;;11.02;;
10031;SDS011;5056;44.272;19.892;2023-07-16T12:01:01;12.65;;;11.52;;
10031;SDS011;5056;44.272;19.892;2023-07-16T12:03:28;11.65;;;10.75;;
10031;SDS011;5056;44.272;19.892;2023-07-16T12:05:55;13.02;;;11.70;;
10031;SDS011;5056;44.272;19.892;2023-07-16T12:08:22;12.13;;;11.23;;
10031;SDS011;5056;44.272;19.892;2023-07-16T12:10:49;12.25;;;11.35;;
10031;SDS011;5056;44.272;19.892;2023-07-16T12:13:18;13.25;;;12.20;;
10031;SDS011;5056;44.272;19.892;2023-07-16T12:15:45;13.27;;;12.25;;
10031;SDS011;5056;44.272;19.892;2023-07-16T12:18:12;11.57;;;10.77;;
10031;SDS011;5056;44.272;19.892;2023-07-16T12:20:38;12.43;;;11.63;;
10031;SDS011;5056;44.272;19.892;2023-07-16T12:23:05;12.68;;;11.75;;
10031;SDS011;5056;44.272;19.892;2023-07-16T12:25:33;12.05;;;11.27;;
10031;SDS011;5056;44.272;19.892;2023-07-16T12:28:01;12.88;;;11.98;;
10031;SDS011;5056;44.272;19.892;2023-07-16T12:30:39;12.82;;;11.93;;
10031;SDS011;5056;44.272;19.892;2023-07-16T12:33:05;12.57;;;11.77;;
10031;SDS011;5056;44.272;19.892;2023-07-16T12:35:36;14.18;;;13.05;;
10031;SDS011;5056;44.272;19.892;2023-07-16T12:38:03;12.60;;;11.70;;
10031;SDS011;5056;44.272;19.892;2023-07-16T12:40:30;12.70;;;11.80;;
10031;SDS011;5056;44.272;19.892;2023-07-16T12:43:04;13.43;;;12.23;;
10031;SDS011;5056;44.272;19.892;2023-07-16T12:45:35;11.50;;;10.68;;
10031;SDS011;5056;44.272;19.892;2023-07-16T12:48:05;12.10;;;11.30;;
10031;SDS011;5056;44.272;19.892;2023-07-16T12:50:34;12.20;;;11.38;;
10031;SDS011;5056;44.272;19.892;2023-07-16T12:53:02;11.88;;;11.07;;
10031;SDS011;5056;44.272;19.892;2023-07-16T12:55:31;13.10;;;12.20;;
10031;SDS011;5056;44.272;19.892;2023-07-16T12:57:59;12.50;;;11.43;;
10031;SDS011;5056;44.272;19.892;2023-07-16T13:00:26;12.85;;;11.90;;
10031;SDS011;5056;44.272;19.892;2023-07-16T13:02:57;12.50;;;11.60;;
10031;SDS011;5056;44.272;19.892;2023-07-16T13:05:30;12.95;;;11.95;;
10031;SDS011;5056;44.272;19.892;2023-07-16T13:10:48;11.88;;;10.95;;
10031;SDS011;5056;44.272;19.892;2023-07-16T13:13:15;12.20;;;11.27;;
10031;SDS011;5056;44.272;19.892;2023-07-16T13:15:42;11.68;;;10.88;;
10031;SDS011;5056;44.272;19.892;2023-07-16T13:18:10;11.77;;;10.98;;
10031;SDS011;5056;44.272;19.892;2023-07-16T13:20:39;11.05;;;10.23;;
10031;SDS011;5056;44.272;19.892;2023-07-16T13:23:06;11.43;;;10.63;;
10031;SDS011;5056;44.272;19.892;2023-07-16T13:25:34;13.27;;;12.32;;
10031;SDS011;5056;44.272;19.892;2023-07-16T13:28:02;13.07;;;11.98;;
10031;SDS011;5056;44.272;19.892;2023-07-16T13:30:30;11.85;;;11.05;;
10031;SDS011;5056;44.272;19.892;2023-07-16T13:32:57;11.75;;;10.95;;
10031;SDS011;5056;44.272;19.892;2023-07-16T13:35:31;12.27;;;11.48;;
10031;SDS011;5056;44.272;19.892;2023-07-16T13:38:00;12.60;;;11.70;;
10031;SDS011;5056;44.272;19.892;2023-07-16T13:40:28;14.15;;;13.15;;
10031;SDS011;5056;44.272;19.892;2023-07-16T13:42:55;14.27;;;13.25;;
10031;SDS011;5056;44.272;19.892;2023-07-16T13:45:23;16.67;;;15.32;;
10031;SDS011;5056;44.272;19.892;2023-07-16T13:47:51;16.15;;;15.13;;
10031;SDS011;5056;44.272;19.892;2023-07-16T13:50:19;16.55;;;15.35;;
10031;SDS011;5056;44.272;19.892;2023-07-16T13:52:46;17.00;;;15.70;;
10031;SDS011;5056;44.272;19.892;2023-07-16T13:55:16;17.55;;;16.35;;
10031;SDS011;5056;44.272;19.892;2023-07-16T13:57:45;16.60;;;15.50;;
10031;SDS011;5056;44.272;19.892;2023-07-16T14:00:13;16.67;;;15.48;;
10031;SDS011;5056;44.272;19.892;2023-07-16T14:02:42;16.00;;;15.00;;
10031;SDS011;5056;44.272;19.892;2023-07-16T14:05:09;16.83;;;15.63;;
10031;SDS011;5056;44.272;19.892;2023-07-16T14:07:36;16.63;;;15.52;;
10031;SDS011;5056;44.272;19.892;2023-07-16T14:10:03;18.67;;;17.35;;
10031;SDS011;5056;44.272;19.892;2023-07-16T14:12:32;18.73;;;17.38;;
10031;SDS011;5056;44.272;19.892;2023-07-16T14:14:59;19.45;;;18.05;;
10031;SDS011;5056;44.272;19.892;2023-07-16T14:17:26;18.73;;;17.48;;
10031;SDS011;5056;44.272;19.892;2023-07-16T14:19:54;18.63;;;17.33;;
10031;SDS011;5056;44.272;19.892;2023-07-16T14:22:21;17.80;;;16.67;;
10031;SDS011;5056;44.272;19.892;2023-07-16T14:24:51;19.20;;;17.90;;
10031;SDS011;5056;44.272;19.892;2023-07-16T14:27:18;21.05;;;19.65;;
10031;SDS011;5056;44.272;19.892;2023-07-16T14:29:47;19.20;;;17.90;;
10031;SDS011;5056;44.272;19.892;2023-07-16T14:32:14;21.85;;;20.13;;
10031;SDS011;5056;44.272;19.892;2023-07-16T14:34:41;21.50;;;20.02;;
10031;SDS011;5056;44.272;19.892;2023-07-16T14:37:08;20.75;;;19.35;;
10031;SDS011;5056;44.272;19.892;2023-07-16T14:39:35;22.73;;;21.23;;
10031;SDS011;5056;44.272;19.892;2023-07-16T14:42:02;21.85;;;20.25;;
10031;SDS011;5056;44.272;19.892;2023-07-16T14:44:30;23.00;;;21.40;;
10031;SDS011;5056;44.272;19.892;2023-07-16T14:47:00;21.20;;;19.80;;
10031;SDS011;5056;44.272;19.892;2023-07-16T14:49:29;22.35;;;20.85;;